Time;durP1;ratioP1;P1;durP2;ratioP2;P2;SDS_P1;SDS_P2;PMS_P1;PMS_P2;Temp;Humidity;BMP_temperature;BMP_pressure;BME280_temperature;BME280_humidity;BME280_pressure;Samples;Min_cycle;Max_cycle;Signal;HPM_P1;HPM_P2
2021/04/30 00:00:50;;;;;;;6.57;4.85;;;8.90;81.80;;;;;;4968174;28;20031;-76
2021/04/30 00:03:17;;;;;;;6.95;5.03;;;8.80;83.00;;;;;;4963264;28;20038;-76
2021/04/30 00:05:43;;;;;;;5.75;4.55;;;8.80;81.70;;;;;;4970834;28;20034;-75
2021/04/30 00:08:09;;;;;;;7.55;5.63;;;8.70;82.00;;;;;;4968396;28;20034;-76
2021/04/30 00:10:35;;;;;;;7.65;5.70;;;8.80;83.00;;;;;;4967065;28;20062;-76
2021/04/30 00:13:00;;;;;;;9.25;6.50;;;8.70;82.80;;;;;;4966627;28;20018;-76
2021/04/30 00:15:26;;;;;;;7.68;6.05;;;8.70;83.00;;;;;;4966464;28;20051;-77
2021/04/30 00:17:51;;;;;;;6.10;5.38;;;8.80;83.70;;;;;;4967148;28;20049;-76
2021/04/30 00:20:17;;;;;;;7.72;5.72;;;8.80;83.20;;;;;;4962935;28;20031;-75
2021/04/30 00:22:43;;;;;;;8.68;6.28;;;8.80;83.90;;;;;;4966945;28;20050;-76
2021/04/30 00:25:10;;;;;;;7.18;5.85;;;8.90;83.90;;;;;;4966535;28;20030;-76
2021/04/30 00:27:36;;;;;;;8.13;6.10;;;8.80;84.50;;;;;;4967511;28;20097;-77
2021/04/30 00:30:02;;;;;;;9.32;6.38;;;8.90;84.60;;;;;;4972265;28;20027;-76
2021/04/30 00:32:28;;;;;;;9.48;6.38;;;8.80;84.10;;;;;;4966333;28;20046;-77
2021/04/30 00:34:53;;;;;;;8.63;5.45;;;8.90;84.40;;;;;;4964583;28;20654;-76
2021/04/30 00:37:19;;;;;;;7.72;5.45;;;8.80;83.90;;;;;;4972206;28;20448;-77
2021/04/30 00:39:45;;;;;;;6.80;5.80;;;8.80;83.60;;;;;;4969955;28;20038;-77
2021/04/30 00:42:10;;;;;;;7.07;5.45;;;8.80;83.60;;;;;;4966001;28;20038;-76
2021/04/30 00:44:36;;;;;;;6.68;5.03;;;8.70;83.00;;;;;;4970895;28;20027;-77
2021/04/30 00:47:02;;;;;;;8.40;5.50;;;8.80;83.30;;;;;;4967456;28;20367;-75
2021/04/30 00:49:28;;;;;;;9.35;6.32;;;8.80;83.10;;;;;;4966637;28;20023;-75
2021/04/30 00:51:53;;;;;;;10.02;6.05;;;8.80;83.50;;;;;;4966864;28;20118;-76
2021/04/30 00:54:19;;;;;;;8.30;6.88;;;8.90;84.10;;;;;;4973609;28;20029;-76
2021/04/30 00:56:45;;;;;;;10.50;6.85;;;8.90;83.80;;;;;;4966602;28;20047;-77
2021/04/30 00:59:11;;;;;;;9.73;7.03;;;8.90;83.70;;;;;;4970006;28;20027;-76
2021/04/30 01:01:38;;;;;;;10.55;6.85;;;9.00;84.50;;;;;;4967065;28;20045;-76
2021/04/30 01:04:04;;;;;;;12.55;6.70;;;9.00;84.70;;;;;;4973260;28;20023;-76
2021/04/30 01:06:31;;;;;;;8.73;5.93;;;9.00;84.50;;;;;;4966388;28;20019;-76
2021/04/30 01:08:57;;;;;;;9.85;6.65;;;9.10;84.60;;;;;;4966069;28;20031;-76
2021/04/30 01:11:23;;;;;;;8.77;6.35;;;9.10;84.40;;;;;;4965458;28;20442;-76
2021/04/30 01:13:49;;;;;;;12.63;7.50;;;9.10;84.40;;;;;;4967123;28;20026;-76
2021/04/30 01:16:15;;;;;;;10.95;6.93;;;9.10;85.30;;;;;;4968673;28;20081;-76
2021/04/30 01:18:46;;;;;;;9.23;6.85;;;9.10;85.90;;;;;;4966463;28;20087;-78
2021/04/30 01:21:13;;;;;;;10.00;6.55;;;9.20;84.60;;;;;;4965669;28;20045;-77
2021/04/30 01:23:50;;;;;;;11.43;7.05;;;9.20;85.10;;;;;;4982298;28;20035;-76
2021/04/30 01:26:17;;;;;;;10.23;6.78;;;9.20;84.80;;;;;;4968453;28;20105;-76
2021/04/30 01:28:44;;;;;;;11.68;6.97;;;9.20;85.10;;;;;;4972326;28;20036;-77
2021/04/30 01:31:10;;;;;;;9.15;6.63;;;9.20;85.00;;;;;;4973163;28;20049;-76
2021/04/30 01:33:36;;;;;;;7.95;6.40;;;9.20;85.00;;;;;;4982040;28;20041;-76
2021/04/30 01:36:02;;;;;;;9.88;6.32;;;9.20;84.60;;;;;;4959294;28;20542;-76
2021/04/30 01:38:28;;;;;;;9.65;6.72;;;9.20;84.30;;;;;;4965563;28;20413;-76
2021/04/30 01:40:54;;;;;;;9.82;6.63;;;9.10;85.00;;;;;;4966646;28;20026;-77
2021/04/30 01:43:20;;;;;;;9.25;6.32;;;9.10;84.30;;;;;;4966699;28;20118;-76
2021/04/30 01:45:52;;;;;;;8.80;6.85;;;9.00;84.30;;;;;;4971908;28;20015;-77
2021/04/30 01:48:22;;;;;;;10.02;7.50;;;9.10;85.10;;;;;;4969961;28;20102;-76
2021/04/30 01:50:49;;;;;;;8.15;5.70;;;9.10;85.70;;;;;;4963945;28;20030;-76
2021/04/30 01:53:24;;;;;;;8.98;7.00;;;9.00;84.90;;;;;;4961126;28;20050;-76
2021/04/30 01:55:49;;;;;;;9.35;7.28;;;8.90;85.10;;;;;;4963921;28;20027;-76
2021/04/30 01:58:16;;;;;;;9.35;6.65;;;9.00;85.50;;;;;;4965823;28;20042;-76
2021/04/30 02:00:43;;;;;;;12.18;7.50;;;9.00;83.00;;;;;;4961907;28;20065;-75
2021/04/30 02:03:09;;;;;;;11.98;7.40;;;9.00;82.00;;;;;;4967132;28;20023;-77
2021/04/30 02:05:34;;;;;;;10.43;6.60;;;9.00;82.20;;;;;;4963212;28;20046;-76
2021/04/30 02:08:05;;;;;;;9.25;6.47;;;9.10;81.10;;;;;;4963959;28;20030;-77
2021/04/30 02:10:32;;;;;;;10.82;7.32;;;9.10;81.00;;;;;;4968934;28;20421;-76
2021/04/30 02:12:59;;;;;;;9.15;6.78;;;9.10;80.40;;;;;;4967768;28;20023;-76
2021/04/30 02:15:27;;;;;;;8.75;6.30;;;9.10;80.50;;;;;;4966422;28;20494;-76
2021/04/30 02:17:53;;;;;;;10.68;6.97;;;9.10;80.50;;;;;;4966164;28;20038;-77
2021/04/30 02:20:20;;;;;;;12.02;7.25;;;9.10;80.60;;;;;;4969385;28;20023;-76
2021/04/30 02:22:46;;;;;;;12.77;7.53;;;9.20;80.80;;;;;;4957185;28;20051;-76
2021/04/30 02:25:14;;;;;;;10.52;6.15;;;9.20;80.00;;;;;;4966853;28;20398;-77
2021/04/30 02:27:40;;;;;;;11.40;7.05;;;9.10;79.80;;;;;;4960150;28;20081;-76
2021/04/30 02:30:08;;;;;;;9.35;6.28;;;9.10;80.60;;;;;;4967794;28;20030;-77
2021/04/30 02:32:34;;;;;;;13.77;6.78;;;9.00;80.20;;;;;;4969662;28;20671;-76
2021/04/30 02:35:01;;;;;;;11.52;6.97;;;8.90;80.70;;;;;;4965441;28;20113;-76
2021/04/30 02:37:27;;;;;;;9.60;6.20;;;8.80;80.20;;;;;;4965720;28;20058;-76
2021/04/30 02:39:53;;;;;;;10.82;6.68;;;8.90;80.00;;;;;;4965876;28;20034;-76
2021/04/30 02:42:19;;;;;;;7.55;5.95;;;8.90;79.80;;;;;;4965966;28;20030;-76
2021/04/30 02:44:45;;;;;;;10.55;7.03;;;8.90;80.20;;;;;;4963572;28;20106;-76
2021/04/30 02:47:11;;;;;;;11.63;7.13;;;8.90;80.10;;;;;;4967748;28;20126;-76
2021/04/30 02:49:39;;;;;;;9.98;7.20;;;8.90;80.20;;;;;;4967359;28;20081;-75
2021/04/30 02:52:06;;;;;;;9.83;6.77;;;8.90;80.10;;;;;;4969536;28;20110;-77
2021/04/30 02:54:32;;;;;;;11.98;7.72;;;8.90;79.80;;;;;;4966053;28;20025;-76
2021/04/30 02:56:58;;;;;;;9.05;7.03;;;8.90;79.40;;;;;;4966389;28;20046;-76
2021/04/30 02:59:24;;;;;;;11.38;7.50;;;8.90;79.40;;;;;;4966588;28;20023;-75
2021/04/30 03:01:49;;;;;;;12.32;7.57;;;8.90;79.50;;;;;;4965088;28;20061;-76
2021/04/30 03:04:15;;;;;;;10.57;7.32;;;8.90;79.50;;;;;;4961078;28;20051;-76
2021/04/30 03:06:41;;;;;;;14.48;8.23;;;8.70;79.60;;;;;;4962204;28;20022;-76
2021/04/30 03:09:06;;;;;;;12.30;8.02;;;8.60;80.30;;;;;;4965379;28;20030;-76
2021/04/30 03:11:32;;;;;;;12.43;7.53;;;8.50;80.40;;;;;;4969797;28;20162;-75
2021/04/30 03:13:57;;;;;;;10.75;7.53;;;8.50;80.70;;;;;;4966133;28;20031;-76
2021/04/30 03:16:23;;;;;;;11.98;7.40;;;8.40;81.30;;;;;;4967507;28;20130;-76
2021/04/30 03:18:49;;;;;;;11.90;8.23;;;8.40;81.30;;;;;;4963245;28;20489;-76
2021/04/30 03:21:14;;;;;;;11.77;7.75;;;8.40;81.10;;;;;;4965566;28;20061;-76
2021/04/30 03:23:40;;;;;;;12.85;8.05;;;8.30;81.30;;;;;;4967083;28;20537;-76
2021/04/30 03:26:05;;;;;;;12.18;8.68;;;8.20;82.10;;;;;;4966917;28;20074;-77
2021/04/30 03:28:31;;;;;;;13.10;8.43;;;8.10;82.50;;;;;;4965353;28;20193;-76
2021/04/30 03:30:57;;;;;;;14.98;8.50;;;8.00;82.50;;;;;;4963207;28;20103;-77
2021/04/30 03:33:22;;;;;;;13.05;8.98;;;7.90;82.60;;;;;;4964911;28;20029;-75
2021/04/30 03:35:48;;;;;;;15.18;9.23;;;7.90;83.00;;;;;;4963488;28;20034;-75
2021/04/30 03:38:13;;;;;;;17.95;9.15;;;7.90;83.10;;;;;;4965796;28;20143;-76
2021/04/30 03:40:39;;;;;;;14.05;9.40;;;7.80;82.90;;;;;;4967074;28;20043;-76
2021/04/30 03:43:05;;;;;;;18.25;9.10;;;7.80;83.20;;;;;;4965454;28;20026;-75
2021/04/30 03:45:30;;;;;;;13.60;9.10;;;7.80;82.60;;;;;;4967258;28;20037;-76
2021/04/30 03:47:56;;;;;;;11.90;8.35;;;7.80;82.80;;;;;;4964781;28;20106;-76
2021/04/30 03:50:22;;;;;;;16.08;9.70;;;7.80;83.00;;;;;;4965241;28;20059;-75
2021/04/30 03:52:47;;;;;;;15.43;10.00;;;7.80;82.70;;;;;;4972760;28;20027;-75
2021/04/30 03:55:13;;;;;;;13.90;9.85;;;7.80;82.50;;;;;;4968738;28;20033;-76
2021/04/30 03:57:39;;;;;;;14.35;9.60;;;7.70;82.70;;;;;;4969159;28;20027;-77
2021/04/30 04:00:05;;;;;;;15.35;10.20;;;7.80;82.60;;;;;;4970197;28;20506;-77
2021/04/30 04:02:31;;;;;;;14.55;9.75;;;7.70;83.10;;;;;;4965351;28;20129;-76
2021/04/30 04:04:56;;;;;;;15.00;9.38;;;7.70;83.60;;;;;;4968522;28;20181;-77
2021/04/30 04:07:23;;;;;;;13.82;9.57;;;7.60;83.50;;;;;;4965568;28;20037;-76
2021/04/30 04:09:48;;;;;;;18.10;10.30;;;7.60;84.00;;;;;;4969196;28;20113;-77
2021/04/30 04:12:14;;;;;;;15.52;10.00;;;7.60;83.80;;;;;;4966209;28;20114;-76
2021/04/30 04:14:40;;;;;;;14.68;9.70;;;7.60;83.90;;;;;;4968032;28;20031;-77
2021/04/30 04:17:06;;;;;;;13.63;8.55;;;7.60;83.60;;;;;;4964415;28;20023;-75
2021/04/30 04:19:32;;;;;;;15.75;9.25;;;7.60;83.00;;;;;;4969301;28;20053;-76
2021/04/30 04:21:58;;;;;;;14.32;9.50;;;7.60;83.10;;;;;;4969965;28;20030;-75
2021/04/30 04:24:23;;;;;;;18.05;10.20;;;7.60;83.40;;;;;;4969016;28;20041;-77
2021/04/30 04:26:49;;;;;;;15.25;9.82;;;7.60;82.80;;;;;;4964447;28;20054;-77
2021/04/30 04:29:15;;;;;;;16.08;9.65;;;7.50;83.40;;;;;;4969763;28;20038;-76
2021/04/30 04:31:40;;;;;;;16.10;10.05;;;7.60;83.30;;;;;;4963918;28;20030;-76
2021/04/30 04:34:06;;;;;;;18.50;11.05;;;7.60;83.10;;;;;;4971302;28;20025;-76
2021/04/30 04:36:32;;;;;;;13.25;9.05;;;7.50;83.40;;;;;;4967367;28;20023;-76
2021/04/30 04:38:58;;;;;;;13.20;8.82;;;7.50;84.20;;;;;;4966298;28;20136;-76
2021/04/30 04:41:24;;;;;;;15.80;9.45;;;7.60;83.00;;;;;;4969032;28;20506;-76
2021/04/30 04:43:50;;;;;;;14.50;8.93;;;7.70;82.50;;;;;;4962194;28;20437;-75
2021/04/30 04:46:15;;;;;;;16.23;8.93;;;7.70;81.80;;;;;;4968949;28;20038;-76
2021/04/30 04:48:41;;;;;;;13.80;9.30;;;7.70;79.90;;;;;;4965459;28;20027;-76
2021/04/30 04:51:07;;;;;;;13.30;8.50;;;7.70;79.50;;;;;;4968469;28;20077;-75
2021/04/30 04:53:32;;;;;;;16.25;8.38;;;7.70;77.30;;;;;;4959866;28;20710;-76
2021/04/30 04:55:58;;;;;;;15.70;8.63;;;7.60;78.90;;;;;;4966821;28;20109;-76
2021/04/30 04:58:23;;;;;;;12.43;9.35;;;7.60;80.10;;;;;;4965077;28;20514;-77
2021/04/30 05:00:49;;;;;;;15.85;10.02;;;7.70;81.00;;;;;;4966082;28;20034;-76
2021/04/30 05:03:15;;;;;;;15.35;10.30;;;7.70;81.10;;;;;;4966245;28;20493;-75
2021/04/30 05:05:40;;;;;;;17.70;9.65;;;7.60;81.80;;;;;;4968900;28;20038;-76
2021/04/30 05:08:06;;;;;;;14.70;9.82;;;7.60;80.60;;;;;;4969645;28;20035;-78
2021/04/30 05:10:31;;;;;;;16.58;9.63;;;7.60;79.10;;;;;;4969566;28;20037;-74
2021/04/30 05:12:58;;;;;;;13.70;9.80;;;7.50;79.10;;;;;;4966310;28;20026;-74
2021/04/30 05:15:24;;;;;;;14.77;8.75;;;7.50;78.90;;;;;;4967741;28;20026;-75
2021/04/30 05:17:50;;;;;;;12.07;8.75;;;7.50;78.30;;;;;;4961322;28;20654;-76
2021/04/30 05:20:15;;;;;;;13.50;8.75;;;7.50;78.40;;;;;;4969327;28;20022;-76
2021/04/30 05:22:42;;;;;;;13.27;8.77;;;7.50;78.50;;;;;;4964297;28;20087;-76
2021/04/30 05:25:10;;;;;;;18.33;8.80;;;7.50;79.50;;;;;;4966471;28;20564;-75
2021/04/30 05:27:36;;;;;;;11.95;8.00;;;7.60;78.50;;;;;;4969177;28;20019;-76
2021/04/30 05:30:03;;;;;;;12.50;7.97;;;7.50;77.70;;;;;;4968447;28;20015;-76
2021/04/30 05:32:28;;;;;;;12.77;8.93;;;7.60;77.60;;;;;;4961142;28;20577;-76
2021/04/30 05:34:56;;;;;;;14.80;8.50;;;7.60;77.80;;;;;;4967333;28;20015;-76
2021/04/30 05:37:22;;;;;;;16.47;9.07;;;7.60;77.30;;;;;;4965614;28;20049;-75
2021/04/30 05:39:48;;;;;;;14.35;8.90;;;7.60;77.00;;;;;;4966289;28;20031;-76
2021/04/30 05:42:13;;;;;;;13.70;8.35;;;7.60;77.60;;;;;;4966566;28;20121;-77
2021/04/30 05:44:39;;;;;;;13.45;8.43;;;7.70;77.50;;;;;;4968452;28;20014;-76
2021/04/30 05:47:05;;;;;;;11.70;9.00;;;7.70;77.90;;;;;;4963497;28;20490;-76
2021/04/30 05:49:30;;;;;;;13.50;8.68;;;7.70;77.80;;;;;;4956489;28;20033;-76
2021/04/30 05:51:56;;;;;;;15.85;9.38;;;7.80;77.80;;;;;;4955374;28;20071;-75
2021/04/30 05:54:22;;;;;;;13.63;9.15;;;7.80;77.30;;;;;;4966377;28;20018;-76
2021/04/30 05:56:47;;;;;;;15.10;8.80;;;7.80;78.50;;;;;;4964445;28;20034;-76
2021/04/30 05:59:13;;;;;;;16.08;9.30;;;7.90;78.40;;;;;;4968452;28;20027;-76
2021/04/30 06:01:39;;;;;;;13.88;8.80;;;7.80;79.20;;;;;;4961371;28;20662;-76
2021/04/30 06:04:05;;;;;;;11.82;8.32;;;7.80;77.60;;;;;;4960228;28;20030;-75
2021/04/30 06:06:31;;;;;;;14.85;8.85;;;7.90;77.30;;;;;;4963941;28;20404;-75
2021/04/30 06:08:56;;;;;;;14.13;8.45;;;7.90;76.90;;;;;;4966913;28;20042;-77
2021/04/30 06:11:22;;;;;;;12.43;8.85;;;7.90;76.60;;;;;;4966053;28;20027;-75
2021/04/30 06:13:48;;;;;;;14.40;9.50;;;7.90;76.80;;;;;;4966698;28;20109;-76
2021/04/30 06:16:14;;;;;;;14.50;9.10;;;8.00;77.70;;;;;;4962107;28;20077;-77
2021/04/30 06:18:39;;;;;;;13.45;8.80;;;8.00;78.00;;;;;;4964736;28;20054;-77
2021/04/30 06:21:05;;;;;;;15.55;8.93;;;8.10;79.80;;;;;;4963368;28;20037;-76
2021/04/30 06:23:31;;;;;;;17.52;8.13;;;8.10;78.20;;;;;;4964136;28;20035;-77
2021/04/30 06:25:56;;;;;;;13.20;9.02;;;8.20;77.50;;;;;;4962879;28;20030;-76
2021/04/30 06:28:22;;;;;;;13.27;9.07;;;8.20;79.10;;;;;;4965680;28;20027;-77
2021/04/30 06:30:50;;;;;;;15.98;10.05;;;8.20;75.90;;;;;;4971482;28;20053;-76
2021/04/30 06:33:16;;;;;;;16.17;10.23;;;8.20;76.90;;;;;;4968966;28;20027;-77
2021/04/30 06:35:41;;;;;;;14.15;8.68;;;8.30;77.00;;;;;;4968624;28;20667;-77
2021/04/30 06:38:07;;;;;;;17.50;10.00;;;8.30;75.10;;;;;;4969642;28;20039;-77
2021/04/30 06:40:33;;;;;;;12.55;9.23;;;8.30;77.30;;;;;;4976290;28;20450;-76
2021/04/30 06:42:59;;;;;;;16.00;8.93;;;8.30;75.10;;;;;;4964366;28;20073;-77
2021/04/30 06:45:25;;;;;;;13.07;9.50;;;8.30;76.10;;;;;;4971638;28;20030;-77
2021/04/30 06:47:51;;;;;;;12.73;8.98;;;8.40;75.40;;;;;;4962279;28;20034;-77
2021/04/30 06:50:17;;;;;;;15.95;9.50;;;8.40;77.20;;;;;;4967010;28;20030;-76
2021/04/30 06:52:43;;;;;;;13.38;9.27;;;8.50;75.60;;;;;;4963257;28;20382;-76
2021/04/30 06:55:09;;;;;;;15.15;9.30;;;8.50;75.30;;;;;;4966838;28;20035;-77
2021/04/30 06:57:35;;;;;;;16.50;9.48;;;8.60;75.60;;;;;;4964873;28;20094;-76
2021/04/30 07:00:00;;;;;;;13.55;9.27;;;8.70;75.60;;;;;;4965277;28;20447;-76
2021/04/30 07:02:26;;;;;;;14.27;8.98;;;8.70;74.10;;;;;;4963658;28;20489;-76
2021/04/30 07:04:55;;;;;;;14.85;9.95;;;8.70;73.90;;;;;;4962357;28;20029;-75
2021/04/30 07:07:20;;;;;;;12.10;8.32;;;8.70;74.70;;;;;;4963125;28;20062;-76
2021/04/30 07:09:48;;;;;;;14.82;8.75;;;8.70;71.60;;;;;;4962311;28;20039;-76
2021/04/30 07:12:13;;;;;;;11.15;8.55;;;8.70;74.50;;;;;;4965086;28;20023;-76
2021/04/30 07:14:39;;;;;;;13.27;8.27;;;8.70;71.50;;;;;;4963993;28;20023;-77
2021/04/30 07:17:04;;;;;;;12.68;7.82;;;8.70;73.00;;;;;;4965818;28;20023;-76
2021/04/30 07:19:30;;;;;;;11.85;7.95;;;8.80;71.70;;;;;;4969238;28;20030;-77
2021/04/30 07:21:55;;;;;;;12.30;8.18;;;9.00;71.20;;;;;;4962246;28;20083;-74
2021/04/30 07:24:21;;;;;;;15.07;8.80;;;9.10;70.60;;;;;;4968724;28;20038;-75
2021/04/30 07:26:47;;;;;;;14.15;8.13;;;9.20;72.50;;;;;;4967383;28;20073;-75
2021/04/30 07:29:13;;;;;;;13.18;9.32;;;9.30;70.10;;;;;;4968817;28;20027;-75
2021/04/30 07:31:39;;;;;;;16.55;10.27;;;9.30;70.80;;;;;;4966902;28;20037;-76
2021/04/30 07:34:04;;;;;;;14.70;9.48;;;9.40;73.50;;;;;;4969858;28;20050;-75
2021/04/30 07:36:30;;;;;;;14.35;8.88;;;9.50;73.30;;;;;;4970541;28;20145;-76
2021/04/30 07:38:57;;;;;;;16.33;9.35;;;9.60;70.90;;;;;;4966740;28;20511;-75
2021/04/30 07:41:23;;;;;;;16.95;8.95;;;9.60;67.60;;;;;;4968771;28;20031;-76
2021/04/30 07:43:48;;;;;;;12.75;7.47;;;9.70;66.30;;;;;;4969230;28;20110;-76
2021/04/30 07:46:14;;;;;;;13.15;8.57;;;9.60;65.80;;;;;;4968685;28;20018;-76
2021/04/30 07:48:40;;;;;;;11.35;8.38;;;9.80;68.00;;;;;;4966877;28;20057;-76
2021/04/30 07:51:06;;;;;;;11.05;7.30;;;9.80;66.00;;;;;;4972248;28;20029;-75
2021/04/30 07:53:34;;;;;;;12.82;9.20;;;9.80;66.70;;;;;;4967531;28;20102;-75
2021/04/30 07:56:00;;;;;;;15.38;8.18;;;9.90;67.60;;;;;;4969129;28;20027;-76
2021/04/30 07:58:27;;;;;;;13.35;8.52;;;10.00;66.20;;;;;;4973447;28;20105;-76
2021/04/30 08:00:57;;;;;;;13.15;8.23;;;10.10;66.70;;;;;;4969526;28;20042;-76
2021/04/30 08:03:23;;;;;;;13.75;9.13;;;10.20;67.60;;;;;;4966752;28;20531;-75
2021/04/30 08:05:53;;;;;;;12.52;8.63;;;10.40;69.10;;;;;;4970253;28;20027;-75
2021/04/30 08:08:19;;;;;;;12.18;8.23;;;10.50;66.80;;;;;;4963051;28;20034;-74
2021/04/30 08:10:45;;;;;;;15.30;8.60;;;10.50;65.00;;;;;;4941620;28;661258;-76
2021/04/30 08:13:10;;;;;;;13.88;9.30;;;10.50;66.40;;;;;;4973210;28;20279;-75
2021/04/30 08:15:36;;;;;;;11.80;7.45;;;10.60;66.30;;;;;;4967840;28;20023;-75
2021/04/30 08:18:02;;;;;;;13.45;8.95;;;10.80;64.10;;;;;;4967267;28;20116;-75
2021/04/30 08:20:28;;;;;;;15.23;9.93;;;10.90;65.80;;;;;;4970859;28;20035;-75
2021/04/30 08:22:54;;;;;;;12.57;8.52;;;10.90;65.10;;;;;;4968342;28;20033;-75
2021/04/30 08:25:20;;;;;;;17.05;10.15;;;10.90;64.40;;;;;;4971221;28;20031;-75
2021/04/30 08:27:46;;;;;;;16.42;9.00;;;11.10;66.70;;;;;;4967536;28;20088;-76
2021/04/30 08:30:12;;;;;;;16.48;9.60;;;11.30;64.00;;;;;;4967967;28;20054;-76
2021/04/30 08:32:38;;;;;;;13.52;9.52;;;11.40;65.90;;;;;;4964670;28;20035;-75
2021/04/30 08:35:05;;;;;;;15.48;8.93;;;11.30;64.10;;;;;;4969712;28;20026;-75
2021/04/30 08:37:30;;;;;;;16.02;8.40;;;11.40;65.30;;;;;;4969028;28;20067;-75
2021/04/30 08:39:57;;;;;;;13.18;9.02;;;11.40;61.00;;;;;;4970295;28;20116;-76
2021/04/30 08:42:23;;;;;;;17.38;9.93;;;11.50;63.20;;;;;;4964990;28;20063;-76
2021/04/30 08:44:49;;;;;;;13.98;9.23;;;11.60;66.80;;;;;;4969065;28;20030;-76
2021/04/30 08:47:19;;;;;;;13.93;10.15;;;11.80;65.60;;;;;;4962984;28;20588;-75
2021/04/30 08:49:46;;;;;;;16.70;10.00;;;12.00;64.50;;;;;;4968324;28;20026;-76
2021/04/30 08:52:12;;;;;;;13.73;9.40;;;12.00;62.90;;;;;;4967157;28;20065;-76
2021/04/30 08:54:40;;;;;;;13.63;9.07;;;12.00;62.90;;;;;;4970851;28;20416;-76
2021/04/30 08:57:09;;;;;;;14.57;9.10;;;12.00;61.10;;;;;;4969551;28;20109;-76
2021/04/30 08:59:36;;;;;;;12.07;7.80;;;12.00;63.50;;;;;;4971613;28;20058;-76
2021/04/30 09:02:02;;;;;;;12.15;8.23;;;12.00;60.10;;;;;;4960574;28;20129;-76
2021/04/30 09:04:29;;;;;;;14.38;10.43;;;12.10;60.40;;;;;;4968013;28;20042;-76
2021/04/30 09:06:55;;;;;;;14.47;9.53;;;12.20;61.80;;;;;;4966437;28;20077;-76
2021/04/30 09:09:21;;;;;;;12.85;8.70;;;12.30;63.20;;;;;;4967540;28;20706;-75
2021/04/30 09:11:51;;;;;;;13.30;9.57;;;12.30;61.30;;;;;;4965070;28;20065;-77
2021/04/30 09:14:33;;;;;;;12.32;8.80;;;12.30;64.30;;;;;;4966832;28;20581;-75
2021/04/30 09:17:06;;;;;;;13.02;9.18;;;12.60;61.50;;;;;;4963105;28;20038;-76
2021/04/30 09:19:35;;;;;;;13.02;9.27;;;12.60;63.30;;;;;;4963284;28;20538;-75
2021/04/30 09:22:08;;;;;;;15.63;10.18;;;12.70;62.00;;;;;;4973171;28;20042;-76
2021/04/30 09:24:35;;;;;;;14.45;8.85;;;12.90;63.20;;;;;;4968584;28;20113;-76
2021/04/30 09:27:02;;;;;;;13.20;8.82;;;12.80;63.20;;;;;;4966541;28;20015;-75
2021/04/30 09:29:31;;;;;;;15.30;8.98;;;13.00;60.90;;;;;;4964401;28;20737;-76
2021/04/30 09:31:57;;;;;;;12.30;8.88;;;12.90;59.00;;;;;;4962666;28;20156;-76
2021/04/30 09:34:26;;;;;;;12.85;9.50;;;12.90;61.20;;;;;;4967886;28;20173;-75
2021/04/30 09:37:11;;;;;;;15.02;9.98;;;12.80;62.60;;;;;;4963717;28;21267;-76
2021/04/30 09:39:52;;;;;;;16.63;9.00;;;12.70;64.10;;;;;;4961163;28;20027;-75
2021/04/30 09:42:19;;;;;;;11.93;9.00;;;12.70;62.40;;;;;;4964545;28;20062;-76
2021/04/30 09:44:48;;;;;;;14.35;8.35;;;12.80;62.00;;;;;;4967794;28;20031;-76
2021/04/30 09:47:34;;;;;;;13.95;9.32;;;12.80;61.60;;;;;;4969387;28;20525;-76
2021/04/30 09:50:06;;;;;;;16.83;10.43;;;12.90;64.50;;;;;;4965917;28;20749;-75
2021/04/30 09:52:31;;;;;;;15.07;10.50;;;13.00;65.40;;;;;;4966584;28;20027;-76
2021/04/30 09:55:02;;;;;;;15.02;10.02;;;13.00;63.40;;;;;;4966433;28;20485;-75
2021/04/30 09:57:32;;;;;;;13.80;10.57;;;13.10;65.90;;;;;;4966157;28;20113;-75
2021/04/30 09:59:59;;;;;;;15.40;10.15;;;13.20;67.30;;;;;;4968038;28;20027;-76
2021/04/30 10:02:27;;;;;;;16.40;10.07;;;13.40;63.50;;;;;;4963919;28;20038;-76
2021/04/30 10:04:55;;;;;;;14.20;10.13;;;13.10;63.20;;;;;;4969776;28;20027;-76
2021/04/30 10:07:35;;;;;;;15.85;10.55;;;12.90;62.30;;;;;;4962959;28;20050;-76
2021/04/30 10:10:11;;;;;;;17.23;9.52;;;13.10;67.00;;;;;;4969097;28;20394;-75
2021/04/30 10:12:58;;;;;;;14.52;9.65;;;13.30;65.80;;;;;;4962748;28;20026;-75
2021/04/30 10:15:24;;;;;;;14.10;9.35;;;13.50;62.50;;;;;;4961352;28;20036;-76
2021/04/30 10:17:58;;;;;;;13.60;9.60;;;13.60;59.00;;;;;;4964555;28;20018;-76
2021/04/30 10:20:24;;;;;;;17.67;9.90;;;13.60;60.00;;;;;;4964755;28;20034;-76
2021/04/30 10:22:51;;;;;;;15.23;10.82;;;13.60;63.70;;;;;;4968346;28;20031;-76
2021/04/30 10:25:18;;;;;;;13.48;8.52;;;13.60;60.80;;;;;;4963699;28;20089;-76
2021/04/30 10:27:50;;;;;;;14.27;10.30;;;13.70;59.70;;;;;;4961420;28;20126;-75
2021/04/30 10:30:20;;;;;;;15.32;10.27;;;13.90;64.40;;;;;;4964686;28;20584;-76
2021/04/30 10:32:53;;;;;;;15.30;10.43;;;14.10;60.70;;;;;;4955305;28;20058;-75
2021/04/30 10:35:34;;;;;;;12.70;8.77;;;14.10;63.90;;;;;;4955899;28;20717;-75
2021/04/30 10:38:07;;;;;;;15.10;10.18;;;14.20;61.60;;;;;;4964185;28;20128;-76
2021/04/30 10:40:34;;;;;;;14.35;10.30;;;14.40;64.30;;;;;;4964791;28;20015;-74
2021/04/30 10:43:17;;;;;;;15.20;9.93;;;14.40;59.50;;;;;;4962123;28;20173;-75
2021/04/30 10:45:55;;;;;;;14.70;9.65;;;14.30;59.30;;;;;;4966685;28;20106;-76
2021/04/30 10:48:21;;;;;;;13.32;9.50;;;14.50;59.10;;;;;;4961819;28;20495;-75
2021/04/30 10:50:50;;;;;;;14.75;11.45;;;14.50;57.80;;;;;;4964988;28;20077;-75
2021/04/30 10:53:23;;;;;;;14.27;8.55;;;14.40;60.10;;;;;;4964092;28;20393;-75
2021/04/30 10:55:49;;;;;;;14.25;8.90;;;14.50;59.30;;;;;;4966644;28;20110;-75
2021/04/30 10:58:36;;;;;;;11.75;8.57;;;14.80;58.90;;;;;;4965377;28;20114;-75
2021/04/30 11:01:20;;;;;;;16.02;10.00;;;14.90;57.20;;;;;;4961042;28;20030;-75
2021/04/30 11:04:09;;;;;;;13.82;9.82;;;15.00;59.40;;;;;;4962942;28;20027;-75
2021/04/30 11:06:54;;;;;;;14.75;10.27;;;15.00;58.80;;;;;;4960576;28;20082;-75
2021/04/30 11:09:31;;;;;;;12.68;9.07;;;15.30;58.30;;;;;;4964790;28;20101;-75
2021/04/30 11:12:02;;;;;;;14.27;10.05;;;15.20;58.10;;;;;;4963757;28;20023;-76
2021/04/30 11:14:35;;;;;;;16.33;9.07;;;15.10;55.00;;;;;;4966843;28;20027;-76
2021/04/30 11:17:02;;;;;;;15.65;10.57;;;14.90;58.10;;;;;;4965006;28;20157;-75
2021/04/30 11:19:30;;;;;;;13.18;9.55;;;15.20;60.50;;;;;;4963518;28;20100;-76
2021/04/30 11:22:08;;;;;;;14.13;10.48;;;15.20;59.60;;;;;;4966551;28;20019;-76
2021/04/30 11:24:35;;;;;;;;;;;15.30;60.10;;;;;;4964939;28;20038;-75
2021/04/30 11:27:19;;;;;;;13.63;9.05;;;15.20;60.00;;;;;;4964608;28;20421;-75
2021/04/30 11:29:46;;;;;;;14.27;9.93;;;15.10;59.10;;;;;;4961185;28;20023;-76
2021/04/30 11:32:20;;;;;;;14.27;9.77;;;15.10;59.40;;;;;;4964528;28;20118;-76
2021/04/30 11:34:50;;;;;;;15.00;10.90;;;15.00;60.40;;;;;;4961355;28;20442;-75
2021/04/30 11:37:17;;;;;;;14.05;10.30;;;15.20;61.00;;;;;;4964314;28;20042;-76
2021/04/30 11:39:43;;;;;;;16.13;10.60;;;15.40;59.80;;;;;;4966289;28;20456;-74
2021/04/30 11:42:10;;;;;;;13.00;9.45;;;15.60;63.10;;;;;;4963601;28;20038;-75
2021/04/30 11:44:38;;;;;;;16.27;11.75;;;15.50;55.10;;;;;;4965222;28;20031;-75
2021/04/30 11:47:08;;;;;;;16.03;10.10;;;15.50;59.00;;;;;;4964377;28;20070;-75
2021/04/30 11:49:40;;;;;;;14.50;9.85;;;15.60;57.20;;;;;;4966046;28;20058;-75
2021/04/30 11:52:10;;;;;;;15.10;10.48;;;15.70;57.90;;;;;;4963886;28;20110;-75
2021/04/30 11:54:38;;;;;;;12.57;9.40;;;15.70;59.60;;;;;;4962245;28;20019;-75
2021/04/30 11:57:10;;;;;;;16.52;9.90;;;15.80;58.50;;;;;;4964226;28;20074;-75
2021/04/30 11:59:38;;;;;;;17.85;11.25;;;15.80;58.70;;;;;;4962178;28;20031;-76
2021/04/30 12:02:09;;;;;;;17.85;12.90;;;15.80;60.10;;;;;;4965074;28;20043;-75
2021/04/30 12:04:54;;;;;;;13.25;9.70;;;16.00;62.40;;;;;;4964035;28;20029;-75
2021/04/30 12:07:22;;;;;;;17.20;10.38;;;16.10;58.90;;;;;;4980114;28;22350;-76
2021/04/30 12:09:49;;;;;;;14.10;9.98;;;16.20;57.10;;;;;;4969674;28;20082;-75
2021/04/30 12:12:21;;;;;;;15.48;10.45;;;16.00;55.40;;;;;;4967698;28;20062;-76
2021/04/30 12:14:50;;;;;;;15.07;10.02;;;15.90;58.40;;;;;;4968298;28;20030;-75
2021/04/30 12:17:31;;;;;;;13.43;9.07;;;16.10;57.70;;;;;;4966350;28;20117;-75
2021/04/30 12:20:13;;;;;;;13.95;10.07;;;15.80;54.20;;;;;;4969707;28;20026;-75
2021/04/30 12:23:03;;;;;;;13.35;9.93;;;15.80;58.90;;;;;;4968069;28;20478;-76
2021/04/30 12:25:31;;;;;;;13.13;9.32;;;16.10;57.70;;;;;;4968642;28;20077;-76
2021/04/30 12:28:27;;;;;;;15.48;10.43;;;16.10;57.30;;;;;;4964322;28;20034;-75
2021/04/30 12:31:03;;;;;;;13.13;10.23;;;16.20;58.20;;;;;;4967046;28;20122;-75
2021/04/30 12:33:35;;;;;;;16.02;10.63;;;16.20;57.60;;;;;;4967592;28;20481;-76
2021/04/30 12:36:04;;;;;;;13.80;10.07;;;16.20;60.80;;;;;;4968815;28;20033;-75
2021/04/30 12:38:31;;;;;;;14.18;9.68;;;16.10;58.50;;;;;;4966623;28;20030;-75
2021/04/30 12:41:07;;;;;;;13.80;9.77;;;16.20;62.00;;;;;;4969416;28;20037;-76
2021/04/30 12:43:35;;;;;;;14.52;9.50;;;16.20;57.80;;;;;;4967665;28;20057;-76
2021/04/30 12:46:13;;;;;;;17.05;10.40;;;16.10;58.10;;;;;;4968987;28;20054;-75